createdAt,value
2022-12-11T00:01:10.498Z,11.03
2022-12-11T00:03:39.244Z,11.03
2022-12-11T00:06:08.752Z,11.03
2022-12-11T00:08:38.922Z,11.02
2022-12-11T00:11:09.557Z,11.00
2022-12-11T00:13:37.632Z,10.98
2022-12-11T00:16:06.098Z,10.99
2022-12-11T00:18:35.555Z,10.98
2022-12-11T00:21:05.870Z,10.98
2022-12-11T00:23:36.075Z,10.97
2022-12-11T00:26:09.713Z,10.96
2022-12-11T00:28:37.855Z,10.96
2022-12-11T00:31:06.744Z,10.93
2022-12-11T00:33:34.942Z,10.93
2022-12-11T00:36:03.956Z,10.92
2022-12-11T00:38:32.133Z,10.91
2022-12-11T00:41:00.583Z,10.92
2022-12-11T00:43:30.379Z,10.90
2022-12-11T00:45:59.625Z,10.88
2022-12-11T00:48:27.724Z,10.86
2022-12-11T00:50:55.801Z,10.85
2022-12-11T00:53:23.876Z,10.85
2022-12-11T00:55:52.034Z,10.84
2022-12-11T00:58:20.042Z,10.84
2022-12-11T01:00:50.070Z,10.82
2022-12-11T01:03:18.856Z,10.81
2022-12-11T01:05:54.509Z,10.81
2022-12-11T01:08:25.773Z,10.80
2022-12-11T01:11:01.910Z,10.81
2022-12-11T01:13:29.953Z,10.80
2022-12-11T01:15:59.721Z,10.80
2022-12-11T01:18:28.766Z,10.79
2022-12-11T01:20:56.826Z,10.77
2022-12-11T01:23:24.905Z,10.75
2022-12-11T01:25:52.981Z,10.73
2022-12-11T01:28:21.124Z,10.72
2022-12-11T01:30:49.280Z,10.71
2022-12-11T01:33:18.732Z,10.70
2022-12-11T01:35:46.772Z,10.69
2022-12-11T01:38:14.909Z,10.67
2022-12-11T01:40:53.419Z,10.67
2022-12-11T01:43:21.973Z,10.65
2022-12-11T01:45:50.314Z,10.63
2022-12-11T01:48:26.726Z,10.62
2022-12-11T01:50:57.272Z,10.60
2022-12-11T01:53:30.308Z,10.60
2022-12-11T01:56:00.231Z,10.57
2022-12-11T01:58:32.646Z,10.56
2022-12-11T02:01:02.446Z,10.55
2022-12-11T02:03:31.988Z,10.54
2022-12-11T02:06:00.830Z,10.53
2022-12-11T02:08:29.329Z,10.51
2022-12-11T02:11:07.420Z,10.50
2022-12-11T02:13:43.536Z,10.47
2022-12-11T02:16:20.674Z,10.46
2022-12-11T02:18:56.984Z,10.45
2022-12-11T02:21:28.255Z,10.43
2022-12-11T02:24:12.612Z,10.40
2022-12-11T02:27:12.147Z,10.39
2022-12-11T02:29:50.220Z,10.37
2022-12-11T02:32:23.960Z,10.36
2022-12-11T02:34:59.216Z,10.34
2022-12-11T02:37:30.804Z,10.34
2022-12-11T02:39:59.817Z,10.31
2022-12-11T02:42:33.457Z,10.30
2022-12-11T02:45:04.751Z,10.29
2022-12-11T02:47:35.135Z,10.28
2022-12-11T02:50:09.862Z,10.28
2022-12-11T02:52:39.130Z,10.25
2022-12-11T02:55:10.156Z,10.27
2022-12-11T02:57:50.651Z,10.24
2022-12-11T03:00:21.865Z,10.24
2022-12-11T03:02:49.965Z,10.19
2022-12-11T03:05:18.163Z,10.19
2022-12-11T03:07:46.703Z,10.19
2022-12-11T03:10:18.948Z,10.19
2022-12-11T03:12:53.388Z,10.18
2022-12-11T03:15:30.305Z,10.15
2022-12-11T03:18:04.938Z,10.13
2022-12-11T03:20:40.004Z,10.13
2022-12-11T03:23:19.305Z,10.12
2022-12-11T03:25:54.671Z,10.11
2022-12-11T03:28:28.398Z,10.10
2022-12-11T03:30:59.650Z,10.08
2022-12-11T03:33:34.798Z,10.06
2022-12-11T03:36:07.400Z,10.04
2022-12-11T03:38:40.795Z,10.02
2022-12-11T03:41:10.139Z,10.03
2022-12-11T03:43:40.008Z,10.03
2022-12-11T03:46:12.661Z,10.01
2022-12-11T03:48:43.570Z,9.98
2022-12-11T03:51:12.209Z,9.99
2022-12-11T03:53:40.882Z,9.94
2022-12-11T03:56:11.278Z,9.97
2022-12-11T03:58:53.325Z,9.95
2022-12-11T04:01:22.916Z,9.95
2022-12-11T04:03:51.155Z,9.94
2022-12-11T04:06:19.508Z,9.93
2022-12-11T04:08:47.576Z,9.92
2022-12-11T04:11:33.211Z,9.90
2022-12-11T04:14:19.206Z,9.90
2022-12-11T04:16:48.660Z,9.86
2022-12-11T04:19:34.349Z,9.86
2022-12-11T04:22:20.266Z,9.85
2022-12-11T04:24:50.181Z,9.83
2022-12-11T04:27:39.284Z,9.82
2022-12-11T04:30:10.359Z,9.81
2022-12-11T04:32:40.035Z,9.80
2022-12-11T04:35:09.846Z,9.79
2022-12-11T04:37:38.938Z,9.76
2022-12-11T04:40:10.057Z,9.78
2022-12-11T04:42:38.093Z,9.77
2022-12-11T04:45:08.374Z,9.74
2022-12-11T04:47:37.173Z,9.75
2022-12-11T04:50:08.890Z,9.74
2022-12-11T04:52:37.067Z,9.71
2022-12-11T04:55:05.746Z,9.70
2022-12-11T04:57:33.831Z,9.68
2022-12-11T05:00:04.590Z,9.67
2022-12-11T05:02:36.640Z,9.65
2022-12-11T05:05:09.924Z,9.67
2022-12-11T05:07:38.733Z,9.65
2022-12-11T05:10:07.943Z,9.65
2022-12-11T05:12:36.033Z,9.61
2022-12-11T05:15:04.279Z,9.60
2022-12-11T05:17:32.459Z,9.60
2022-12-11T05:20:00.789Z,9.60
2022-12-11T05:22:31.837Z,9.59
2022-12-11T05:25:00.081Z,9.56
2022-12-11T05:27:28.329Z,9.56
2022-12-11T05:29:59.526Z,9.51
2022-12-11T05:32:27.872Z,9.55
2022-12-11T05:34:55.928Z,9.53
2022-12-11T05:37:24.055Z,9.50
2022-12-11T05:39:53.549Z,9.51
2022-12-11T05:42:25.548Z,9.51
2022-12-11T05:44:57.106Z,9.50
2022-12-11T05:47:25.848Z,9.48
2022-12-11T05:49:53.956Z,9.46
2022-12-11T05:52:22.159Z,9.46
2022-12-11T05:54:50.441Z,9.45
2022-12-11T05:57:19.924Z,9.45
2022-12-11T05:59:48.148Z,9.44
2022-12-11T06:02:16.303Z,9.41
2022-12-11T06:04:44.404Z,9.42
2022-12-11T06:07:12.880Z,9.42
2022-12-11T06:09:40.894Z,9.39
2022-12-11T06:12:09.028Z,9.40
2022-12-11T06:14:38.724Z,9.38
2022-12-11T06:17:07.464Z,9.38
2022-12-11T06:19:37.091Z,9.39
2022-12-11T06:22:05.826Z,9.37
2022-12-11T06:24:34.080Z,9.37
2022-12-11T06:27:02.076Z,9.35
2022-12-11T06:29:30.136Z,9.34
2022-12-11T06:31:59.888Z,9.30
2022-12-11T06:34:28.327Z,9.31
2022-12-11T06:36:56.456Z,9.30
2022-12-11T06:39:24.504Z,9.23
2022-12-11T06:41:52.542Z,9.28
2022-12-11T06:44:20.547Z,9.26
2022-12-11T06:46:48.590Z,9.25
2022-12-11T06:49:18.008Z,9.24
2022-12-11T06:51:46.069Z,9.24
2022-12-11T06:54:14.103Z,9.23
2022-12-11T06:56:42.169Z,9.22
2022-12-11T06:59:13.059Z,9.20
2022-12-11T07:01:41.942Z,9.20
2022-12-11T07:04:10.742Z,9.19
2022-12-11T07:06:40.227Z,9.18
2022-12-11T07:09:08.399Z,9.17
2022-12-11T07:11:36.456Z,9.17
2022-12-11T07:14:04.886Z,9.16
2022-12-11T07:16:32.950Z,9.14
2022-12-11T07:19:01.446Z,9.15
2022-12-11T07:21:29.759Z,9.16
2022-12-11T07:24:00.192Z,9.15
2022-12-11T07:26:28.458Z,9.16
2022-12-11T07:28:58.282Z,9.14
2022-12-11T07:31:28.604Z,9.14
2022-12-11T07:33:58.539Z,9.14
2022-12-11T07:36:27.571Z,9.14
2022-12-11T07:38:56.512Z,9.14
2022-12-11T07:41:27.796Z,9.15
2022-12-11T07:43:56.331Z,9.15
2022-12-11T07:46:26.321Z,9.14
2022-12-11T07:48:54.937Z,9.14
2022-12-11T07:51:29.667Z,9.14
2022-12-11T07:53:59.549Z,9.12
2022-12-11T07:56:29.994Z,9.13
2022-12-11T07:59:00.543Z,9.12
2022-12-11T08:01:30.353Z,9.12
2022-12-11T08:03:58.544Z,9.13
2022-12-11T08:06:29.911Z,9.11
2022-12-11T08:08:58.821Z,9.12
2022-12-11T08:11:29.188Z,9.10
2022-12-11T08:13:57.269Z,9.12
2022-12-11T08:16:25.425Z,9.09
2022-12-11T08:18:54.244Z,9.11
2022-12-11T08:21:24.412Z,9.10
2022-12-11T08:23:54.082Z,9.10
2022-12-11T08:26:25.069Z,9.07
2022-12-11T08:28:54.702Z,9.10
2022-12-11T08:31:23.877Z,9.09
2022-12-11T08:33:52.915Z,9.10
2022-12-11T08:36:22.966Z,9.09
2022-12-11T08:38:51.961Z,9.08
2022-12-11T08:41:22.111Z,9.09
2022-12-11T08:43:52.866Z,9.08
2022-12-11T08:46:24.021Z,9.08
2022-12-11T08:48:52.405Z,9.08
2022-12-11T08:51:22.792Z,9.07
2022-12-11T08:53:51.325Z,9.06
2022-12-11T08:56:21.569Z,9.06
2022-12-11T08:58:49.582Z,9.07
2022-12-11T09:01:21.570Z,9.06
2022-12-11T09:03:52.302Z,9.02
2022-12-11T09:06:22.775Z,9.03
2022-12-11T09:08:53.309Z,9.03
2022-12-11T09:11:23.955Z,9.03
2022-12-11T09:13:52.188Z,9.01
2022-12-11T09:16:22.336Z,9.03
2022-12-11T09:18:53.513Z,9.02
2022-12-11T09:21:23.597Z,9.00
2022-12-11T09:23:54.602Z,8.99
2022-12-11T09:26:23.241Z,9.07
2022-12-11T09:28:53.240Z,9.22
2022-12-11T09:31:24.225Z,9.31
2022-12-11T09:33:56.715Z,9.45
2022-12-11T09:36:25.202Z,9.54
2022-12-11T09:38:53.692Z,9.75
2022-12-11T09:41:36.395Z,9.78
2022-12-11T09:44:20.647Z,9.76
2022-12-11T09:46:49.727Z,9.69
2022-12-11T09:49:26.689Z,9.63
2022-12-11T09:52:05.019Z,9.57
2022-12-11T09:54:33.516Z,9.79
2022-12-11T09:57:15.173Z,10.01
2022-12-11T10:00:04.882Z,10.04
2022-12-11T10:02:44.812Z,10.12
2022-12-11T10:05:22.528Z,10.19
2022-12-11T10:07:56.340Z,10.26
2022-12-11T10:10:37.015Z,10.25
2022-12-11T10:13:13.053Z,10.20
2022-12-11T10:15:45.121Z,10.15
2022-12-11T10:18:17.237Z,10.12
2022-12-11T10:20:48.048Z,10.12
2022-12-11T10:23:19.903Z,10.10
2022-12-11T10:25:54.005Z,10.05
2022-12-11T10:28:22.403Z,10.00
2022-12-11T10:30:58.740Z,9.95
2022-12-11T10:33:35.766Z,9.93
2022-12-11T10:36:08.906Z,9.88
2022-12-11T10:38:43.528Z,9.85
2022-12-11T10:41:13.885Z,9.82
2022-12-11T10:43:44.408Z,9.80
2022-12-11T10:46:17.964Z,9.77
2022-12-11T10:48:50.431Z,9.75
2022-12-11T10:51:20.741Z,9.72
2022-12-11T10:53:52.259Z,9.77
2022-12-11T10:56:27.363Z,9.77
2022-12-11T10:58:57.896Z,9.74
2022-12-11T11:01:28.586Z,9.73
2022-12-11T11:04:01.099Z,9.71
2022-12-11T11:06:30.547Z,9.65
2022-12-11T11:09:00.470Z,9.64
2022-12-11T11:11:33.904Z,9.58
2022-12-11T11:14:16.794Z,9.62
2022-12-11T11:16:47.711Z,9.62
2022-12-11T11:19:20.629Z,9.61
2022-12-11T11:21:54.006Z,9.58
2022-12-11T11:24:31.088Z,9.57
2022-12-11T11:27:14.692Z,9.56
2022-12-11T11:29:50.263Z,9.55
2022-12-11T11:32:25.739Z,9.56
2022-12-11T11:34:53.739Z,9.56
2022-12-11T11:37:32.986Z,9.54
2022-12-11T11:40:09.346Z,9.56
2022-12-11T11:42:46.975Z,9.56
2022-12-11T11:45:21.093Z,9.55
2022-12-11T11:47:57.074Z,9.55
2022-12-11T11:50:32.997Z,9.55
2022-12-11T11:53:18.499Z,9.57
2022-12-11T11:55:55.815Z,9.56
2022-12-11T11:58:28.097Z,9.55
2022-12-11T12:00:56.432Z,9.52
2022-12-11T12:03:26.148Z,9.52
2022-12-11T12:05:58.795Z,9.51
2022-12-11T12:08:42.726Z,9.54
2022-12-11T12:11:21.827Z,9.54
2022-12-11T12:14:00.775Z,9.54
2022-12-11T12:16:52.584Z,9.52
2022-12-11T12:19:39.346Z,9.54
2022-12-11T12:22:17.598Z,9.54
2022-12-11T12:24:56.274Z,9.53
2022-12-11T12:27:51.634Z,9.53
2022-12-11T12:30:23.396Z,9.53
2022-12-11T12:33:05.343Z,9.53
2022-12-11T12:35:37.676Z,9.53
2022-12-11T12:38:12.294Z,9.53
2022-12-11T12:40:56.783Z,9.52
2022-12-11T12:43:46.233Z,9.53
2022-12-11T12:46:26.957Z,9.53
2022-12-11T12:48:58.239Z,9.53
2022-12-11T12:51:27.734Z,9.53
2022-12-11T12:53:59.201Z,9.53
2022-12-11T12:56:33.223Z,9.53
2022-12-11T12:59:01.407Z,9.53
2022-12-11T13:01:32.437Z,9.52
2022-12-11T13:04:03.169Z,9.54
2022-12-11T13:06:35.277Z,9.53
2022-12-11T13:09:18.362Z,9.53
2022-12-11T13:11:52.108Z,9.51
2022-12-11T13:14:31.140Z,9.53
2022-12-11T13:17:25.495Z,9.53
2022-12-11T13:20:12.572Z,9.53
2022-12-11T13:22:55.819Z,9.52
2022-12-11T13:25:28.985Z,9.53
2022-12-11T13:28:07.547Z,9.53
2022-12-11T13:30:36.471Z,9.52
2022-12-11T13:33:07.199Z,9.53
2022-12-11T13:35:36.647Z,9.51
2022-12-11T13:38:08.579Z,9.52
2022-12-11T13:40:41.092Z,9.52
2022-12-11T13:43:19.459Z,9.52
2022-12-11T13:45:50.946Z,9.52
2022-12-11T13:48:24.426Z,9.51
2022-12-11T13:50:54.268Z,9.48
2022-12-11T13:53:22.952Z,9.50
2022-12-11T13:55:58.552Z,9.49
2022-12-11T13:58:29.565Z,9.50
2022-12-11T14:01:07.643Z,9.48
2022-12-11T14:03:37.363Z,9.49
2022-12-11T14:06:05.772Z,9.49
2022-12-11T14:08:39.474Z,9.48
2022-12-11T14:11:07.693Z,9.47
2022-12-11T14:13:40.825Z,9.49
2022-12-11T14:16:09.340Z,9.49
2022-12-11T14:18:38.107Z,9.47
2022-12-11T14:21:07.748Z,9.45
2022-12-11T14:23:37.039Z,9.49
2022-12-11T14:26:16.402Z,9.48
2022-12-11T14:28:46.100Z,9.48
2022-12-11T14:31:18.642Z,9.50
2022-12-11T14:33:50.413Z,9.49
2022-12-11T14:36:19.145Z,9.48
2022-12-11T14:38:50.868Z,9.55
2022-12-11T14:41:22.790Z,9.64
2022-12-11T14:43:56.402Z,9.68
2022-12-11T14:46:27.885Z,9.72
2022-12-11T14:49:01.046Z,9.71
2022-12-11T14:51:36.111Z,9.70
2022-12-11T14:54:05.691Z,9.73
2022-12-11T14:56:34.914Z,9.79
2022-12-11T14:59:09.185Z,9.87
2022-12-11T15:01:39.324Z,10.22
2022-12-11T15:04:23.285Z,10.47
2022-12-11T15:06:52.895Z,10.43
2022-12-11T15:09:25.764Z,10.40
2022-12-11T15:11:56.699Z,10.35
2022-12-11T15:14:27.876Z,10.28
2022-12-11T15:16:58.657Z,10.24
2022-12-11T15:19:31.459Z,10.16
2022-12-11T15:22:05.009Z,10.12
2022-12-11T15:24:36.681Z,10.35
2022-12-11T15:27:06.863Z,10.67
2022-12-11T15:29:38.789Z,10.74
2022-12-11T15:32:19.748Z,10.74
2022-12-11T15:34:50.198Z,10.69
2022-12-11T15:37:20.249Z,10.61
2022-12-11T15:39:49.462Z,10.54
2022-12-11T15:42:23.946Z,10.53
2022-12-11T15:44:55.422Z,10.55
2022-12-11T15:47:25.542Z,10.52
2022-12-11T15:49:56.601Z,10.51
2022-12-11T15:52:25.155Z,10.46
2022-12-11T15:54:53.257Z,10.46
2022-12-11T15:57:23.455Z,10.38
2022-12-11T15:59:56.307Z,10.29
2022-12-11T16:02:26.763Z,10.28
2022-12-11T16:04:55.072Z,10.22
2022-12-11T16:07:26.247Z,10.21
2022-12-11T16:09:54.804Z,10.20
2022-12-11T16:12:23.244Z,10.16
2022-12-11T16:14:51.237Z,10.14
2022-12-11T16:17:21.125Z,10.14
2022-12-11T16:19:49.554Z,10.27
2022-12-11T16:22:18.116Z,10.27
2022-12-11T16:24:46.112Z,10.27
2022-12-11T16:27:17.301Z,10.24
2022-12-11T16:29:49.032Z,10.20
2022-12-11T16:32:17.087Z,10.17
2022-12-11T16:34:47.069Z,10.11
2022-12-11T16:37:15.309Z,10.10
2022-12-11T16:39:45.975Z,10.05
2022-12-11T16:42:15.260Z,10.03
2022-12-11T16:44:44.522Z,9.99
2022-12-11T16:47:12.749Z,9.97
2022-12-11T16:49:42.129Z,9.94
2022-12-11T16:52:18.993Z,9.92
2022-12-11T16:54:49.930Z,9.90
2022-12-11T16:57:18.246Z,9.90
2022-12-11T16:59:46.322Z,9.87
2022-12-11T17:02:14.603Z,9.87
2022-12-11T17:04:43.429Z,9.85
2022-12-11T17:07:13.172Z,9.86
2022-12-11T17:09:41.255Z,9.84
2022-12-11T17:12:10.195Z,9.84
2022-12-11T17:14:38.325Z,9.79
2022-12-11T17:17:06.488Z,9.83
2022-12-11T17:19:34.788Z,9.86
2022-12-11T17:22:03.567Z,9.78
2022-12-11T17:24:33.639Z,9.79
2022-12-11T17:27:01.663Z,9.75
2022-12-11T17:29:30.662Z,9.73
2022-12-11T17:31:58.858Z,9.72
2022-12-11T17:34:26.946Z,9.75
2022-12-11T17:36:55.034Z,9.75
2022-12-11T17:39:23.817Z,9.77
2022-12-11T17:41:53.740Z,9.73
2022-12-11T17:44:21.890Z,9.73
2022-12-11T17:46:50.288Z,9.70
2022-12-11T17:49:18.472Z,9.67
2022-12-11T17:51:55.696Z,9.67
2022-12-11T17:54:24.673Z,9.64
2022-12-11T17:56:54.106Z,9.64
2022-12-11T17:59:22.552Z,9.61
2022-12-11T18:01:50.893Z,9.60
2022-12-11T18:04:19.027Z,9.56
2022-12-11T18:06:47.172Z,9.54
2022-12-11T18:09:15.271Z,9.54
2022-12-11T18:11:43.453Z,9.52
2022-12-11T18:14:17.209Z,9.50
2022-12-11T18:16:45.714Z,9.51
2022-12-11T18:19:13.860Z,9.50
2022-12-11T18:21:43.794Z,9.52
2022-12-11T18:24:12.931Z,9.52
2022-12-11T18:26:42.808Z,9.52
2022-12-11T18:29:12.637Z,9.51
2022-12-11T18:31:42.881Z,9.50
2022-12-11T18:34:12.106Z,9.49
2022-12-11T18:36:41.442Z,9.48
2022-12-11T18:39:09.557Z,9.45
2022-12-11T18:41:37.716Z,9.45
2022-12-11T18:44:10.023Z,9.42
2022-12-11T18:46:40.004Z,9.44
2022-12-11T18:49:08.616Z,9.44
2022-12-11T18:51:37.338Z,9.43
2022-12-11T18:54:05.558Z,9.42
2022-12-11T18:56:33.864Z,9.41
2022-12-11T18:59:02.339Z,9.44
2022-12-11T19:01:33.059Z,9.48
2022-12-11T19:04:06.664Z,9.51
2022-12-11T19:06:38.583Z,9.53
2022-12-11T19:09:08.905Z,9.55
2022-12-11T19:11:39.642Z,9.54
2022-12-11T19:14:08.578Z,9.53
2022-12-11T19:16:38.426Z,9.54
2022-12-11T19:19:10.845Z,9.55
2022-12-11T19:21:40.068Z,9.63
2022-12-11T19:24:10.439Z,9.67
2022-12-11T19:26:38.724Z,9.71
2022-12-11T19:29:07.819Z,9.72
2022-12-11T19:31:36.297Z,9.73
2022-12-11T19:34:04.607Z,9.74
2022-12-11T19:36:35.079Z,9.73
2022-12-11T19:39:07.076Z,9.70
2022-12-11T19:41:38.138Z,9.66
2022-12-11T19:44:06.734Z,9.64
2022-12-11T19:46:35.059Z,9.63
2022-12-11T19:49:03.512Z,9.61
2022-12-11T19:51:36.486Z,9.59
2022-12-11T19:54:05.184Z,9.57
2022-12-11T19:56:36.618Z,9.56
2022-12-11T19:59:06.140Z,9.55
2022-12-11T20:01:37.010Z,9.48
2022-12-11T20:04:07.950Z,9.52
2022-12-11T20:06:39.278Z,9.49
2022-12-11T20:09:10.924Z,9.49
2022-12-11T20:11:41.008Z,9.48
2022-12-11T20:14:09.331Z,9.47
2022-12-11T20:19:26.724Z,9.57
2022-12-11T20:21:56.944Z,9.66
2022-12-11T20:24:25.098Z,9.73
2022-12-11T20:26:54.287Z,9.77
2022-12-11T20:29:22.359Z,9.81
2022-12-11T20:31:51.225Z,9.87
2022-12-11T20:34:19.992Z,10.04
2022-12-11T20:36:48.946Z,10.05
2022-12-11T20:39:18.574Z,10.03
2022-12-11T20:41:47.179Z,10.00
2022-12-11T20:44:15.828Z,9.96
2022-12-11T20:46:43.969Z,9.90
2022-12-11T20:49:13.189Z,9.87
2022-12-11T20:51:41.944Z,9.81
2022-12-11T20:54:10.119Z,9.79
2022-12-11T20:56:39.947Z,9.74
2022-12-11T20:59:08.832Z,9.71
2022-12-11T21:01:36.864Z,9.68
2022-12-11T21:04:05.084Z,9.65
2022-12-11T21:06:35.498Z,9.63
2022-12-11T21:09:06.032Z,9.59
2022-12-11T21:11:34.322Z,9.56
2022-12-11T21:14:04.788Z,9.53
2022-12-11T21:16:33.882Z,9.50
2022-12-11T21:19:02.769Z,9.45
2022-12-11T21:21:33.325Z,9.43
2022-12-11T21:24:01.385Z,9.41
2022-12-11T21:26:29.529Z,9.39
2022-12-11T21:28:57.780Z,9.38
2022-12-11T21:31:28.968Z,9.33
2022-12-11T21:33:57.183Z,9.33
2022-12-11T21:36:25.540Z,9.31
2022-12-11T21:38:53.849Z,9.29
2022-12-11T21:41:24.638Z,9.27
2022-12-11T21:46:45.075Z,9.24
2022-12-11T21:49:13.209Z,9.22
2022-12-11T21:51:47.148Z,9.21
2022-12-11T21:54:17.487Z,9.18
2022-12-11T21:56:46.244Z,9.01
2022-12-11T21:59:14.986Z,9.16
2022-12-11T22:01:46.641Z,9.14
2022-12-11T22:04:16.159Z,9.11
2022-12-11T22:06:47.303Z,9.10
2022-12-11T22:09:17.837Z,9.07
2022-12-11T22:11:47.472Z,9.07
2022-12-11T22:14:17.583Z,9.05
2022-12-11T22:16:47.419Z,8.98
2022-12-11T22:19:15.700Z,9.02
2022-12-11T22:21:44.169Z,8.99
2022-12-11T22:24:12.324Z,8.96
2022-12-11T22:26:40.896Z,8.96
2022-12-11T22:29:09.250Z,8.94
2022-12-11T22:31:37.222Z,8.93
2022-12-11T22:34:06.709Z,8.91
2022-12-11T22:36:34.819Z,8.89
2022-12-11T22:39:02.975Z,8.84
2022-12-11T22:41:33.222Z,8.87
2022-12-11T22:44:02.235Z,8.85
2022-12-11T22:46:31.439Z,8.84
2022-12-11T22:49:00.142Z,8.83
2022-12-11T22:51:29.532Z,8.80
2022-12-11T22:53:58.545Z,8.80
2022-12-11T22:56:26.638Z,8.79
2022-12-11T22:58:54.801Z,8.78
2022-12-11T23:01:24.700Z,8.78
2022-12-11T23:03:53.630Z,8.75
2022-12-11T23:06:24.751Z,8.74
2022-12-11T23:08:57.773Z,8.75
2022-12-11T23:11:28.885Z,8.73
2022-12-11T23:13:58.066Z,8.72
2022-12-11T23:16:27.398Z,8.70
2022-12-11T23:18:56.110Z,8.68
2022-12-11T23:21:26.372Z,8.67
2022-12-11T23:23:56.715Z,8.67
2022-12-11T23:26:28.693Z,8.64
2022-12-11T23:28:58.184Z,8.64
2022-12-11T23:31:27.400Z,8.63
2022-12-11T23:33:55.902Z,8.63
2022-12-11T23:36:25.348Z,8.61
2022-12-11T23:38:55.945Z,8.57
2022-12-11T23:41:24.683Z,8.58
2022-12-11T23:43:52.775Z,8.58
2022-12-11T23:46:22.520Z,8.58
2022-12-11T23:48:51.828Z,8.56
2022-12-11T23:51:21.614Z,8.55
2022-12-11T23:53:49.983Z,8.53
2022-12-11T23:56:22.234Z,8.54
2022-12-11T23:58:50.983Z,8.51
